sensor_id;sensor_type;location;lat;lon;timestamp;pressure;altitude;pressure_sealevel;temperature;humidity
34073;BME280;20346;52.702;16.886;2023-02-22T00:01:07;100941.71;;;5.44;73.14
34073;BME280;20346;52.702;16.886;2023-02-22T00:04:04;100945.48;;;5.46;73.15
34073;BME280;20346;52.702;16.886;2023-02-22T00:06:51;100948.41;;;5.47;73.16
34073;BME280;20346;52.702;16.886;2023-02-22T00:09:37;100945.33;;;5.46;73.15
34073;BME280;20346;52.702;16.886;2023-02-22T00:12:23;100937.29;;;5.46;73.18
34073;BME280;20346;52.702;16.886;2023-02-22T00:15:09;100934.54;;;5.44;73.11
34073;BME280;20346;52.702;16.886;2023-02-22T00:17:58;100938.10;;;5.43;73.20
34073;BME280;20346;52.702;16.886;2023-02-22T00:20:44;100941.85;;;5.41;73.15
34073;BME280;20346;52.702;16.886;2023-02-22T00:23:30;100945.93;;;5.39;73.10
34073;BME280;20346;52.702;16.886;2023-02-22T00:26:18;100942.48;;;5.36;73.17
34073;BME280;20346;52.702;16.886;2023-02-22T00:29:05;100947.05;;;5.32;73.12
34073;BME280;20346;52.702;16.886;2023-02-22T00:31:51;100948.19;;;5.26;73.08
34073;BME280;20346;52.702;16.886;2023-02-22T00:34:38;100944.89;;;5.21;73.09
34073;BME280;20346;52.702;16.886;2023-02-22T00:37:24;100942.96;;;5.16;73.10
34073;BME280;20346;52.702;16.886;2023-02-22T00:40:11;100946.15;;;5.10;73.15
34073;BME280;20346;52.702;16.886;2023-02-22T00:43:00;100947.45;;;5.04;73.17
34073;BME280;20346;52.702;16.886;2023-02-22T00:45:46;100946.31;;;4.95;73.10
34073;BME280;20346;52.702;16.886;2023-02-22T00:48:33;100948.11;;;4.88;73.16
34073;BME280;20346;52.702;16.886;2023-02-22T00:51:20;100952.65;;;4.83;73.17
34073;BME280;20346;52.702;16.886;2023-02-22T00:54:06;100953.44;;;4.77;73.21
34073;BME280;20346;52.702;16.886;2023-02-22T00:56:52;100960.02;;;4.72;73.19
34073;BME280;20346;52.702;16.886;2023-02-22T00:59:38;100958.41;;;4.64;73.15
34073;BME280;20346;52.702;16.886;2023-02-22T01:02:24;100965.66;;;4.57;73.17
34073;BME280;20346;52.702;16.886;2023-02-22T01:05:11;100972.38;;;4.50;73.19
34073;BME280;20346;52.702;16.886;2023-02-22T01:07:58;100978.09;;;4.43;73.24
34073;BME280;20346;52.702;16.886;2023-02-22T01:10:45;100978.52;;;4.38;73.22
34073;BME280;20346;52.702;16.886;2023-02-22T01:13:31;100973.45;;;4.31;73.18
34073;BME280;20346;52.702;16.886;2023-02-22T01:16:19;100969.39;;;4.22;73.10
34073;BME280;20346;52.702;16.886;2023-02-22T01:19:05;100970.66;;;4.14;73.18
34073;BME280;20346;52.702;16.886;2023-02-22T01:21:51;100974.32;;;4.08;73.14
34073;BME280;20346;52.702;16.886;2023-02-22T01:24:37;100978.30;;;4.01;73.02
34073;BME280;20346;52.702;16.886;2023-02-22T01:27:23;100980.49;;;3.89;72.94
34073;BME280;20346;52.702;16.886;2023-02-22T01:30:10;100983.36;;;3.78;72.97
34073;BME280;20346;52.702;16.886;2023-02-22T01:32:57;100983.86;;;3.68;72.99
34073;BME280;20346;52.702;16.886;2023-02-22T01:35:43;100981.34;;;3.58;73.06
34073;BME280;20346;52.702;16.886;2023-02-22T01:38:30;100987.33;;;3.51;73.10
34073;BME280;20346;52.702;16.886;2023-02-22T01:41:16;100987.73;;;3.45;73.05
34073;BME280;20346;52.702;16.886;2023-02-22T01:47:21;100990.74;;;3.34;73.05
34073;BME280;20346;52.702;16.886;2023-02-22T01:50:08;100994.05;;;3.28;73.08
34073;BME280;20346;52.702;16.886;2023-02-22T01:52:55;100992.58;;;3.22;73.19
34073;BME280;20346;52.702;16.886;2023-02-22T01:55:41;100991.92;;;3.16;73.05
34073;BME280;20346;52.702;16.886;2023-02-22T01:58:28;100994.06;;;3.10;73.08
34073;BME280;20346;52.702;16.886;2023-02-22T02:01:15;100997.30;;;3.02;73.10
34073;BME280;20346;52.702;16.886;2023-02-22T02:04:04;100997.13;;;2.94;73.15
34073;BME280;20346;52.702;16.886;2023-02-22T02:06:51;100996.75;;;2.93;73.26
34073;BME280;20346;52.702;16.886;2023-02-22T02:09:42;100996.40;;;2.92;73.25
34073;BME280;20346;52.702;16.886;2023-02-22T02:12:30;100995.20;;;2.92;73.24
34073;BME280;20346;52.702;16.886;2023-02-22T02:15:23;100992.57;;;2.88;73.19
34073;BME280;20346;52.702;16.886;2023-02-22T02:18:11;100992.30;;;2.84;73.15
34073;BME280;20346;52.702;16.886;2023-02-22T02:35:49;100996.91;;;2.45;73.16
34073;BME280;20346;52.702;16.886;2023-02-22T02:38:43;100994.65;;;2.43;73.17
34073;BME280;20346;52.702;16.886;2023-02-22T02:41:34;100995.59;;;2.39;73.13
34073;BME280;20346;52.702;16.886;2023-02-22T02:44:25;100994.42;;;2.33;73.06
34073;BME280;20346;52.702;16.886;2023-02-22T02:47:13;100994.96;;;2.27;73.12
34073;BME280;20346;52.702;16.886;2023-02-22T02:50:16;100993.51;;;2.23;72.98
34073;BME280;20346;52.702;16.886;2023-02-22T02:53:04;101000.11;;;2.15;73.02
34073;BME280;20346;52.702;16.886;2023-02-22T02:55:52;100995.04;;;2.09;72.96
34073;BME280;20346;52.702;16.886;2023-02-22T02:58:43;100995.70;;;2.00;72.91
34073;BME280;20346;52.702;16.886;2023-02-22T03:10:41;101001.60;;;1.79;73.21
34073;BME280;20346;52.702;16.886;2023-02-22T03:20:00;101002.05;;;1.70;73.21
34073;BME280;20346;52.702;16.886;2023-02-22T03:22:50;100997.23;;;1.68;73.21
34073;BME280;20346;52.702;16.886;2023-02-22T03:25:42;100997.30;;;1.63;73.06
34073;BME280;20346;52.702;16.886;2023-02-22T03:28:31;101002.74;;;1.57;73.09
34073;BME280;20346;52.702;16.886;2023-02-22T03:31:21;100999.73;;;1.52;73.16
34073;BME280;20346;52.702;16.886;2023-02-22T03:34:12;101005.02;;;1.52;73.23
34073;BME280;20346;52.702;16.886;2023-02-22T03:37:10;101009.70;;;1.50;73.07
34073;BME280;20346;52.702;16.886;2023-02-22T03:39:59;101010.59;;;1.45;73.08
34073;BME280;20346;52.702;16.886;2023-02-22T03:42:52;101013.23;;;1.42;73.13
34073;BME280;20346;52.702;16.886;2023-02-22T03:45:40;101016.59;;;1.41;73.11
34073;BME280;20346;52.702;16.886;2023-02-22T03:51:13;101019.23;;;1.38;73.18
34073;BME280;20346;52.702;16.886;2023-02-22T03:54:00;101023.70;;;1.40;73.16
34073;BME280;20346;52.702;16.886;2023-02-22T03:56:52;101022.98;;;1.39;73.11
34073;BME280;20346;52.702;16.886;2023-02-22T03:59:38;101025.06;;;1.34;73.05
34073;BME280;20346;52.702;16.886;2023-02-22T04:02:24;101031.39;;;1.29;73.08
34073;BME280;20346;52.702;16.886;2023-02-22T04:05:10;101029.99;;;1.28;73.11
34073;BME280;20346;52.702;16.886;2023-02-22T04:07:58;101031.66;;;1.27;73.18
34073;BME280;20346;52.702;16.886;2023-02-22T04:10:44;101033.20;;;1.27;73.18
34073;BME280;20346;52.702;16.886;2023-02-22T04:13:30;101032.23;;;1.29;73.31
34073;BME280;20346;52.702;16.886;2023-02-22T04:16:16;101031.79;;;1.31;73.29
34073;BME280;20346;52.702;16.886;2023-02-22T04:19:02;101033.29;;;1.30;73.31
34073;BME280;20346;52.702;16.886;2023-02-22T04:21:48;101035.83;;;1.36;73.45
34073;BME280;20346;52.702;16.886;2023-02-22T04:24:34;101035.29;;;1.41;73.50
34073;BME280;20346;52.702;16.886;2023-02-22T04:27:20;101037.46;;;1.46;73.54
34073;BME280;20346;52.702;16.886;2023-02-22T04:30:05;101037.61;;;1.51;73.61
34073;BME280;20346;52.702;16.886;2023-02-22T04:32:51;101036.45;;;1.60;73.62
34073;BME280;20346;52.702;16.886;2023-02-22T04:35:37;101038.49;;;1.66;73.59
34073;BME280;20346;52.702;16.886;2023-02-22T04:38:23;101042.38;;;1.72;73.63
34073;BME280;20346;52.702;16.886;2023-02-22T04:41:10;101047.64;;;1.78;73.69
34073;BME280;20346;52.702;16.886;2023-02-22T04:43:56;101048.13;;;1.83;73.69
34073;BME280;20346;52.702;16.886;2023-02-22T04:46:42;101051.67;;;1.89;73.73
34073;BME280;20346;52.702;16.886;2023-02-22T04:49:28;101052.70;;;1.95;73.75
34073;BME280;20346;52.702;16.886;2023-02-22T04:52:14;101056.67;;;1.98;73.73
34073;BME280;20346;52.702;16.886;2023-02-22T04:55:00;101061.17;;;2.01;73.71
34073;BME280;20346;52.702;16.886;2023-02-22T04:57:46;101063.05;;;2.01;73.72
34073;BME280;20346;52.702;16.886;2023-02-22T05:00:32;101065.00;;;2.04;73.81
34073;BME280;20346;52.702;16.886;2023-02-22T05:03:18;101061.89;;;2.11;73.80
34073;BME280;20346;52.702;16.886;2023-02-22T05:06:04;101062.63;;;2.13;73.89
34073;BME280;20346;52.702;16.886;2023-02-22T05:08:51;101061.02;;;2.16;73.97
34073;BME280;20346;52.702;16.886;2023-02-22T05:11:38;101059.21;;;2.19;73.88
34073;BME280;20346;52.702;16.886;2023-02-22T05:14:24;101059.29;;;2.21;74.02
34073;BME280;20346;52.702;16.886;2023-02-22T05:17:13;101056.80;;;2.24;73.95
34073;BME280;20346;52.702;16.886;2023-02-22T05:19:59;101056.50;;;2.26;74.02
34073;BME280;20346;52.702;16.886;2023-02-22T05:22:46;101057.11;;;2.29;74.09
34073;BME280;20346;52.702;16.886;2023-02-22T05:25:32;101057.99;;;2.31;74.14
34073;BME280;20346;52.702;16.886;2023-02-22T05:28:18;101061.82;;;2.35;74.22
34073;BME280;20346;52.702;16.886;2023-02-22T05:31:04;101061.90;;;2.38;74.26
34073;BME280;20346;52.702;16.886;2023-02-22T05:33:52;101060.08;;;2.40;74.30
34073;BME280;20346;52.702;16.886;2023-02-22T05:36:38;101060.76;;;2.40;74.30
34073;BME280;20346;52.702;16.886;2023-02-22T05:39:24;101062.23;;;2.38;74.33
34073;BME280;20346;52.702;16.886;2023-02-22T05:42:11;101065.35;;;2.40;74.38
34073;BME280;20346;52.702;16.886;2023-02-22T05:44:57;101068.83;;;2.43;74.46
34073;BME280;20346;52.702;16.886;2023-02-22T05:47:44;101067.84;;;2.44;74.52
34073;BME280;20346;52.702;16.886;2023-02-22T05:50:30;101072.33;;;2.47;74.50
34073;BME280;20346;52.702;16.886;2023-02-22T05:53:18;101073.45;;;2.51;74.56
34073;BME280;20346;52.702;16.886;2023-02-22T05:56:04;101073.50;;;2.53;74.67
34073;BME280;20346;52.702;16.886;2023-02-22T05:58:50;101077.69;;;2.57;74.70
34073;BME280;20346;52.702;16.886;2023-02-22T06:01:37;101083.56;;;2.62;74.72
34073;BME280;20346;52.702;16.886;2023-02-22T06:04:23;101083.63;;;2.65;74.75
34073;BME280;20346;52.702;16.886;2023-02-22T06:07:09;101086.23;;;2.67;74.77
34073;BME280;20346;52.702;16.886;2023-02-22T06:09:55;101093.96;;;2.70;74.80
34073;BME280;20346;52.702;16.886;2023-02-22T06:12:41;101097.13;;;2.74;74.81
34073;BME280;20346;52.702;16.886;2023-02-22T06:15:28;101098.40;;;2.78;74.91
34073;BME280;20346;52.702;16.886;2023-02-22T06:18:14;101101.05;;;2.82;74.87
34073;BME280;20346;52.702;16.886;2023-02-22T06:21:00;101101.80;;;2.85;74.97
34073;BME280;20346;52.702;16.886;2023-02-22T06:23:46;101103.78;;;2.90;74.98
34073;BME280;20346;52.702;16.886;2023-02-22T06:26:33;101103.52;;;2.92;74.98
34073;BME280;20346;52.702;16.886;2023-02-22T06:29:19;101109.38;;;2.96;74.96
34073;BME280;20346;52.702;16.886;2023-02-22T06:32:05;101112.30;;;2.97;74.91
34073;BME280;20346;52.702;16.886;2023-02-22T06:34:51;101112.65;;;2.97;74.90
34073;BME280;20346;52.702;16.886;2023-02-22T06:37:38;101113.66;;;2.97;74.93
34073;BME280;20346;52.702;16.886;2023-02-22T06:40:24;101115.91;;;2.98;75.00
34073;BME280;20346;52.702;16.886;2023-02-22T06:43:14;101117.88;;;3.03;74.99
34073;BME280;20346;52.702;16.886;2023-02-22T06:46:00;101124.60;;;3.06;75.03
34073;BME280;20346;52.702;16.886;2023-02-22T06:48:46;101128.41;;;3.09;75.01
34073;BME280;20346;52.702;16.886;2023-02-22T06:51:35;101126.76;;;3.12;75.03
34073;BME280;20346;52.702;16.886;2023-02-22T06:54:22;101129.42;;;3.17;75.03
34073;BME280;20346;52.702;16.886;2023-02-22T06:57:08;101137.16;;;3.20;75.05
34073;BME280;20346;52.702;16.886;2023-02-22T06:59:55;101135.69;;;3.23;75.02
34073;BME280;20346;52.702;16.886;2023-02-22T07:02:41;101132.86;;;3.26;75.02
34073;BME280;20346;52.702;16.886;2023-02-22T07:05:27;101130.52;;;3.29;75.04
34073;BME280;20346;52.702;16.886;2023-02-22T07:08:14;101131.58;;;3.38;75.08
34073;BME280;20346;52.702;16.886;2023-02-22T07:11:00;101133.42;;;3.52;75.16
34073;BME280;20346;52.702;16.886;2023-02-22T07:13:46;101141.30;;;3.72;75.13
34073;BME280;20346;52.702;16.886;2023-02-22T07:16:32;101141.55;;;3.85;75.02
34073;BME280;20346;52.702;16.886;2023-02-22T07:19:19;101136.66;;;3.96;75.04
34073;BME280;20346;52.702;16.886;2023-02-22T07:22:05;101135.36;;;4.08;75.03
34073;BME280;20346;52.702;16.886;2023-02-22T07:24:51;101135.23;;;4.21;75.06
34073;BME280;20346;52.702;16.886;2023-02-22T07:27:38;101136.73;;;4.38;74.93
34073;BME280;20346;52.702;16.886;2023-02-22T07:33:11;101143.03;;;4.56;74.96
34073;BME280;20346;52.702;16.886;2023-02-22T07:35:57;101142.00;;;4.67;74.95
34073;BME280;20346;52.702;16.886;2023-02-22T07:38:44;101143.39;;;4.69;74.76
34073;BME280;20346;52.702;16.886;2023-02-22T07:41:30;101141.27;;;4.63;74.84
34073;BME280;20346;52.702;16.886;2023-02-22T07:44:16;101142.26;;;4.74;74.94
34073;BME280;20346;52.702;16.886;2023-02-22T07:47:02;101142.01;;;4.90;74.94
34073;BME280;20346;52.702;16.886;2023-02-22T07:49:49;101140.39;;;4.94;74.70
34073;BME280;20346;52.702;16.886;2023-02-22T07:52:35;101141.33;;;4.90;74.65
34073;BME280;20346;52.702;16.886;2023-02-22T07:55:23;101146.34;;;4.83;74.67
34073;BME280;20346;52.702;16.886;2023-02-22T07:58:12;101149.13;;;4.76;74.66
34073;BME280;20346;52.702;16.886;2023-02-22T08:00:59;101151.30;;;4.73;74.75
34073;BME280;20346;52.702;16.886;2023-02-22T08:03:47;101151.66;;;4.74;74.61
34073;BME280;20346;52.702;16.886;2023-02-22T08:06:33;101155.34;;;4.80;74.80
34073;BME280;20346;52.702;16.886;2023-02-22T08:09:19;101159.20;;;4.96;74.79
34073;BME280;20346;52.702;16.886;2023-02-22T08:12:05;101160.46;;;5.01;74.50
34073;BME280;20346;52.702;16.886;2023-02-22T08:14:51;101158.55;;;4.99;74.48
34073;BME280;20346;52.702;16.886;2023-02-22T08:17:37;101161.02;;;5.03;74.61
34073;BME280;20346;52.702;16.886;2023-02-22T08:20:24;101161.65;;;5.11;74.71
34073;BME280;20346;52.702;16.886;2023-02-22T08:23:11;101156.17;;;5.24;74.76
34073;BME280;20346;52.702;16.886;2023-02-22T08:26:08;101156.80;;;5.32;74.78
34073;BME280;20346;52.702;16.886;2023-02-22T08:28:55;101162.09;;;5.43;74.59
34073;BME280;20346;52.702;16.886;2023-02-22T08:31:41;101167.45;;;5.48;74.53
34073;BME280;20346;52.702;16.886;2023-02-22T08:34:34;101165.30;;;5.53;74.63
34073;BME280;20346;52.702;16.886;2023-02-22T08:37:21;101163.52;;;5.62;74.70
34073;BME280;20346;52.702;16.886;2023-02-22T08:40:07;101163.64;;;5.71;74.76
34073;BME280;20346;52.702;16.886;2023-02-22T08:42:53;101163.34;;;5.76;74.60
34073;BME280;20346;52.702;16.886;2023-02-22T08:45:39;101167.34;;;5.81;74.78
34073;BME280;20346;52.702;16.886;2023-02-22T08:48:25;101169.34;;;5.89;74.62
34073;BME280;20346;52.702;16.886;2023-02-22T08:51:12;101170.95;;;5.94;74.57
34073;BME280;20346;52.702;16.886;2023-02-22T08:53:58;101173.05;;;5.98;74.52
34073;BME280;20346;52.702;16.886;2023-02-22T08:56:44;101173.61;;;6.01;74.62
34073;BME280;20346;52.702;16.886;2023-02-22T08:59:30;101177.82;;;6.10;74.59
34073;BME280;20346;52.702;16.886;2023-02-22T09:02:18;101180.66;;;6.19;74.49
34073;BME280;20346;52.702;16.886;2023-02-22T09:05:05;101181.36;;;6.20;74.20
34073;BME280;20346;52.702;16.886;2023-02-22T09:07:51;101189.68;;;6.15;74.20
34073;BME280;20346;52.702;16.886;2023-02-22T09:10:38;101187.55;;;6.09;74.16
34073;BME280;20346;52.702;16.886;2023-02-22T09:13:25;101189.69;;;6.01;73.70
34073;BME280;20346;52.702;16.886;2023-02-22T09:16:11;101189.27;;;5.95;74.17
34073;BME280;20346;52.702;16.886;2023-02-22T09:18:58;101193.28;;;6.00;74.35
34073;BME280;20346;52.702;16.886;2023-02-22T09:21:44;101196.73;;;6.04;74.20
34073;BME280;20346;52.702;16.886;2023-02-22T09:24:30;101201.69;;;6.03;74.12
34073;BME280;20346;52.702;16.886;2023-02-22T09:27:16;101205.58;;;5.99;74.14
34073;BME280;20346;52.702;16.886;2023-02-22T09:30:05;101206.45;;;6.01;74.16
34073;BME280;20346;52.702;16.886;2023-02-22T09:32:58;101208.16;;;6.00;74.16
34073;BME280;20346;52.702;16.886;2023-02-22T09:35:45;101208.47;;;5.97;73.96
34073;BME280;20346;52.702;16.886;2023-02-22T09:38:32;101212.20;;;5.94;74.02
34073;BME280;20346;52.702;16.886;2023-02-22T09:41:25;101218.10;;;5.89;73.79
34073;BME280;20346;52.702;16.886;2023-02-22T09:47:02;101214.94;;;5.84;73.87
34073;BME280;20346;52.702;16.886;2023-02-22T09:49:54;101214.17;;;5.79;73.67
34073;BME280;20346;52.702;16.886;2023-02-22T09:53:02;101209.66;;;5.72;73.82
34073;BME280;20346;52.702;16.886;2023-02-22T09:55:50;101208.64;;;5.71;73.82
34073;BME280;20346;52.702;16.886;2023-02-22T09:58:38;101211.02;;;5.72;73.65
34073;BME280;20346;52.702;16.886;2023-02-22T10:01:38;101212.66;;;5.65;73.36
34073;BME280;20346;52.702;16.886;2023-02-22T10:07:22;101212.30;;;5.51;73.49
34073;BME280;20346;52.702;16.886;2023-02-22T10:10:17;101211.11;;;5.52;73.38
34073;BME280;20346;52.702;16.886;2023-02-22T10:19:00;101212.30;;;5.52;73.26
34073;BME280;20346;52.702;16.886;2023-02-22T10:24:46;101214.02;;;5.52;73.17
34073;BME280;20346;52.702;16.886;2023-02-22T10:27:45;101212.38;;;5.56;73.26
34073;BME280;20346;52.702;16.886;2023-02-22T10:30:45;101208.02;;;5.64;73.25
34073;BME280;20346;52.702;16.886;2023-02-22T10:33:41;101211.03;;;5.72;73.17
34073;BME280;20346;52.702;16.886;2023-02-22T10:36:31;101214.17;;;5.78;73.27
34073;BME280;20346;52.702;16.886;2023-02-22T10:39:53;101213.89;;;5.83;73.18
34073;BME280;20346;52.702;16.886;2023-02-22T10:42:31;101214.61;;;5.84;73.03
34073;BME280;20346;52.702;16.886;2023-02-22T10:48:05;101208.23;;;5.81;72.96
34073;BME280;20346;52.702;16.886;2023-02-22T10:50:53;101209.45;;;5.82;72.98
34073;BME280;20346;52.702;16.886;2023-02-22T10:53:43;101207.95;;;5.86;73.09
34073;BME280;20346;52.702;16.886;2023-02-22T10:56:45;101204.62;;;5.90;73.10
34073;BME280;20346;52.702;16.886;2023-02-22T10:59:33;101203.95;;;5.91;72.95
34073;BME280;20346;52.702;16.886;2023-02-22T11:02:21;101207.66;;;5.88;72.43
34073;BME280;20346;52.702;16.886;2023-02-22T11:05:08;101204.49;;;5.83;72.73
34073;BME280;20346;52.702;16.886;2023-02-22T11:11:19;101201.80;;;5.86;72.78
34073;BME280;20346;52.702;16.886;2023-02-22T11:14:06;101199.55;;;5.84;72.70
34073;BME280;20346;52.702;16.886;2023-02-22T11:16:56;101199.17;;;5.82;72.64
34073;BME280;20346;52.702;16.886;2023-02-22T11:19:46;101194.76;;;5.84;72.79
34073;BME280;20346;52.702;16.886;2023-02-22T11:22:37;101197.88;;;5.87;72.75
34073;BME280;20346;52.702;16.886;2023-02-22T11:25:27;101195.17;;;5.89;72.58
34073;BME280;20346;52.702;16.886;2023-02-22T11:28:16;101195.56;;;5.92;72.69
34073;BME280;20346;52.702;16.886;2023-02-22T11:31:11;101196.29;;;5.94;72.70
34073;BME280;20346;52.702;16.886;2023-02-22T11:33:58;101195.13;;;5.98;72.63
34073;BME280;20346;52.702;16.886;2023-02-22T11:36:45;101194.32;;;6.02;72.70
34073;BME280;20346;52.702;16.886;2023-02-22T11:39:31;101193.01;;;6.07;72.59
34073;BME280;20346;52.702;16.886;2023-02-22T11:42:20;101196.08;;;6.06;72.43
34073;BME280;20346;52.702;16.886;2023-02-22T11:47:55;101194.88;;;6.06;72.40
34073;BME280;20346;52.702;16.886;2023-02-22T11:56:52;101188.54;;;6.19;72.29
34073;BME280;20346;52.702;16.886;2023-02-22T11:59:49;101189.04;;;6.18;72.23
34073;BME280;20346;52.702;16.886;2023-02-22T12:09:02;101188.45;;;6.12;72.15
34073;BME280;20346;52.702;16.886;2023-02-22T12:14:43;101192.40;;;6.13;72.15
34073;BME280;20346;52.702;16.886;2023-02-22T12:17:35;101190.77;;;6.19;72.40
34073;BME280;20346;52.702;16.886;2023-02-22T12:26:27;101194.55;;;6.21;72.18
34073;BME280;20346;52.702;16.886;2023-02-22T12:32:03;101199.36;;;6.25;71.85
34073;BME280;20346;52.702;16.886;2023-02-22T12:34:51;101196.89;;;6.16;71.84
34073;BME280;20346;52.702;16.886;2023-02-22T12:43:59;101187.70;;;6.07;71.93
34073;BME280;20346;52.702;16.886;2023-02-22T12:46:54;101190.69;;;6.13;72.04
34073;BME280;20346;52.702;16.886;2023-02-22T12:49:47;101189.01;;;6.16;71.68
34073;BME280;20346;52.702;16.886;2023-02-22T12:55:25;101192.90;;;6.12;71.77
34073;BME280;20346;52.702;16.886;2023-02-22T12:58:24;101195.62;;;6.11;71.57
34073;BME280;20346;52.702;16.886;2023-02-22T13:01:13;101191.32;;;6.09;71.76
34073;BME280;20346;52.702;16.886;2023-02-22T13:04:02;101187.42;;;6.12;71.75
34073;BME280;20346;52.702;16.886;2023-02-22T13:06:55;101185.52;;;6.09;71.67
34073;BME280;20346;52.702;16.886;2023-02-22T13:15:36;101188.45;;;5.98;71.67
34073;BME280;20346;52.702;16.886;2023-02-22T13:18:37;101192.16;;;5.93;71.53
34073;BME280;20346;52.702;16.886;2023-02-22T13:24:45;101194.08;;;5.96;71.62
34073;BME280;20346;52.702;16.886;2023-02-22T13:36:00;101193.09;;;5.88;71.45
34073;BME280;20346;52.702;16.886;2023-02-22T13:47:57;101185.55;;;5.87;71.14
34073;BME280;20346;52.702;16.886;2023-02-22T13:51:05;101185.98;;;5.81;71.05
34073;BME280;20346;52.702;16.886;2023-02-22T13:53:54;101184.06;;;5.78;71.00
34073;BME280;20346;52.702;16.886;2023-02-22T13:56:45;101179.77;;;5.77;71.22
34073;BME280;20346;52.702;16.886;2023-02-22T13:59:33;101181.99;;;5.77;71.19
34073;BME280;20346;52.702;16.886;2023-02-22T14:02:30;101181.52;;;5.79;71.16
34073;BME280;20346;52.702;16.886;2023-02-22T14:20:01;101187.77;;;5.73;71.03
34073;BME280;20346;52.702;16.886;2023-02-22T14:22:49;101182.64;;;5.71;71.01
34073;BME280;20346;52.702;16.886;2023-02-22T14:25:38;101178.71;;;5.73;71.06
34073;BME280;20346;52.702;16.886;2023-02-22T14:31:28;101184.52;;;5.74;70.99
34073;BME280;20346;52.702;16.886;2023-02-22T14:34:18;101187.55;;;5.68;70.82
34073;BME280;20346;52.702;16.886;2023-02-22T14:37:07;101183.22;;;5.63;70.77
34073;BME280;20346;52.702;16.886;2023-02-22T14:43:20;101190.33;;;5.46;70.77
34073;BME280;20346;52.702;16.886;2023-02-22T14:46:09;101192.36;;;5.44;70.79
34073;BME280;20346;52.702;16.886;2023-02-22T14:49:02;101186.70;;;5.43;70.81
34073;BME280;20346;52.702;16.886;2023-02-22T14:51:57;101188.92;;;5.43;70.74
34073;BME280;20346;52.702;16.886;2023-02-22T14:54:48;101189.61;;;5.43;70.53
34073;BME280;20346;52.702;16.886;2023-02-22T14:57:45;101187.98;;;5.38;70.60
34073;BME280;20346;52.702;16.886;2023-02-22T15:00:39;101185.88;;;5.33;70.60
34073;BME280;20346;52.702;16.886;2023-02-22T15:03:28;101189.55;;;5.28;70.66
34073;BME280;20346;52.702;16.886;2023-02-22T15:06:19;101194.02;;;5.29;70.71
34073;BME280;20346;52.702;16.886;2023-02-22T15:14:47;101194.02;;;5.28;70.60
34073;BME280;20346;52.702;16.886;2023-02-22T15:17:34;101194.96;;;5.23;70.38
34073;BME280;20346;52.702;16.886;2023-02-22T15:20:21;101192.02;;;5.18;70.46
34073;BME280;20346;52.702;16.886;2023-02-22T15:23:08;101191.29;;;5.16;70.36
34073;BME280;20346;52.702;16.886;2023-02-22T15:25:55;101191.58;;;5.13;70.45
34073;BME280;20346;52.702;16.886;2023-02-22T15:28:42;101192.59;;;5.12;70.46
34073;BME280;20346;52.702;16.886;2023-02-22T15:31:31;101190.38;;;5.12;70.48
34073;BME280;20346;52.702;16.886;2023-02-22T15:34:19;101187.48;;;5.13;70.51
34073;BME280;20346;52.702;16.886;2023-02-22T15:37:19;101182.92;;;5.17;70.48
34073;BME280;20346;52.702;16.886;2023-02-22T15:40:18;101184.66;;;5.18;70.47
34073;BME280;20346;52.702;16.886;2023-02-22T15:43:06;101184.14;;;5.18;70.41
34073;BME280;20346;52.702;16.886;2023-02-22T15:45:55;101187.11;;;5.11;70.28
34073;BME280;20346;52.702;16.886;2023-02-22T15:48:42;101186.22;;;5.09;70.38
34073;BME280;20346;52.702;16.886;2023-02-22T15:51:28;101183.98;;;5.07;70.37
34073;BME280;20346;52.702;16.886;2023-02-22T15:54:14;101183.71;;;5.02;70.26
34073;BME280;20346;52.702;16.886;2023-02-22T15:57:01;101182.05;;;4.93;70.18
34073;BME280;20346;52.702;16.886;2023-02-22T15:59:48;101181.70;;;4.83;70.11
34073;BME280;20346;52.702;16.886;2023-02-22T16:02:36;101180.85;;;4.73;70.22
34073;BME280;20346;52.702;16.886;2023-02-22T16:05:27;101184.19;;;4.68;70.18
34073;BME280;20346;52.702;16.886;2023-02-22T16:11:01;101183.79;;;4.53;70.17
34073;BME280;20346;52.702;16.886;2023-02-22T16:13:52;101189.50;;;4.48;70.17
34073;BME280;20346;52.702;16.886;2023-02-22T16:16:39;101190.11;;;4.44;70.15
34073;BME280;20346;52.702;16.886;2023-02-22T16:19:42;101191.70;;;4.38;70.24
34073;BME280;20346;52.702;16.886;2023-02-22T16:22:35;101192.29;;;4.33;70.21
34073;BME280;20346;52.702;16.886;2023-02-22T16:25:24;101197.27;;;4.26;70.21
34073;BME280;20346;52.702;16.886;2023-02-22T16:28:25;101200.71;;;4.18;70.16
34073;BME280;20346;52.702;16.886;2023-02-22T16:31:15;101204.19;;;4.12;70.21
34073;BME280;20346;52.702;16.886;2023-02-22T16:34:02;101206.77;;;4.05;70.22
34073;BME280;20346;52.702;16.886;2023-02-22T16:36:48;101212.46;;;3.99;70.19
34073;BME280;20346;52.702;16.886;2023-02-22T16:39:38;101211.98;;;3.92;70.15
34073;BME280;20346;52.702;16.886;2023-02-22T16:42:24;101210.85;;;3.87;70.18
34073;BME280;20346;52.702;16.886;2023-02-22T16:45:14;101214.31;;;3.81;70.13
34073;BME280;20346;52.702;16.886;2023-02-22T16:48:00;101215.85;;;3.74;70.17
34073;BME280;20346;52.702;16.886;2023-02-22T16:50:50;101217.23;;;3.67;70.20
34073;BME280;20346;52.702;16.886;2023-02-22T16:53:37;101216.42;;;3.59;70.09
34073;BME280;20346;52.702;16.886;2023-02-22T16:56:27;101216.12;;;3.54;70.13
34073;BME280;20346;52.702;16.886;2023-02-22T16:59:13;101212.92;;;3.48;70.07
34073;BME280;20346;52.702;16.886;2023-02-22T17:02:01;101211.27;;;3.42;70.11
34073;BME280;20346;52.702;16.886;2023-02-22T17:04:52;101211.77;;;3.34;70.00
34073;BME280;20346;52.702;16.886;2023-02-22T17:07:38;101214.62;;;3.25;70.05
34073;BME280;20346;52.702;16.886;2023-02-22T17:10:25;101212.93;;;3.19;70.09
34073;BME280;20346;52.702;16.886;2023-02-22T17:13:11;101212.50;;;3.15;70.06